Natures Way Challenger — WDF7294 — position and weather

sailwx.info

Track history (hours):
 
Tides and Currents Weather Stations Pressure Air Temp Water Temp Dewpoint Dewpoint Depression Visibility Wind Speed Wind Dir Waves Ship Positions

Natures Way Challenger

Owner: Natures Way Marine, LLC, Theodore, AL. More information available from US FCC via Universal Licensing System and Coast Guard Vessel Documentation Center.

Last reported at 2016-Apr-29 23:30 UTC. Time now 2016-Apr-29 23:37 UTC.
Position N 29°52' W 089°58'.

Length 14 m.

Type: Towing. MMSI: 367483050.

Date/timePositionNaut miles runAvg speedWind from/ knotsBaromVisibWave heightAir tempDewpointWater temp
2016-Apr-29 23:30N 29°52' W 089°58'4 0.2
2016-Apr-29 07:33N 29°56' W 089°59'6 5.8
2016-Apr-29 06:33N 29°55' W 090°06'4 0.2
2016-Apr-28 15:30N 29°57' W 090°09'3 3.2
2016-Apr-28 14:33N 29°54' W 090°07'0 0.1
2016-Apr-28 13:33N 29°54' W 090°07'3 0.5
2016-Apr-28 07:31N 29°57' W 090°09'4 3.9
2016-Apr-28 06:33N 29°55' W 090°06'4 4.0
2016-Apr-28 05:34N 29°57' W 090°02'4 4.2
2016-Apr-28 04:33N 29°55' W 089°58'3 2.9
2016-Apr-28 03:33N 29°53' W 090°00'3 3.4
2016-Apr-28 02:34N 29°50' W 090°03'1 1.2
2016-Apr-28 01:34N 29°50' W 090°04'  
2016-Apr-24 18:28N 29°50' W 090°03'1 0.6
2016-Apr-24 17:33N 29°50' W 090°03'0 0.0
2016-Apr-24 16:33N 29°50' W 090°03'2 2.3
2016-Apr-24 15:28N 29°52' W 090°01'4 3.8
2016-Apr-24 14:24N 29°55' W 089°58'6 7.1
2016-Apr-24 13:33N 29°55' W 090°05'  
2016-Apr-20 14:04N 29°56' W 093°01'2 3.4
2016-Apr-20 13:33N 29°56' W 093°03'3 3.2
2016-Apr-20 12:33N 29°56' W 093°07'3 3.0
2016-Apr-20 11:33N 29°57' W 093°10'3 3.2
2016-Apr-20 10:33N 29°59' W 093°13'3 2.9
2016-Apr-20 09:33N 30°02' W 093°15'3 2.6
2016-Apr-20 08:33N 30°04' W 093°16'2 2.1
2016-Apr-20 07:33N 30°05' W 093°18'3 2.7
2016-Apr-20 06:33N 30°04' W 093°21'3 3.1
2016-Apr-20 05:33N 30°04' W 093°24'4 3.6
2016-Apr-20 04:33N 30°04' W 093°28'4 3.7
2016-Apr-20 03:33N 30°04' W 093°33'4 3.5
2016-Apr-20 02:33N 30°04' W 093°37'3 3.4
2016-Apr-20 01:33N 30°04' W 093°41'  
Track history (hours):
 
Tides and Currents Weather Stations Pressure Air Temp Water Temp Dewpoint Dewpoint Depression Visibility Wind Speed Wind Dir Waves Ship Positions

Natures Way Challenger

Owner: Natures Way Marine, LLC, Theodore, AL. More information available from US FCC via Universal Licensing System and Coast Guard Vessel Documentation Center.

Last reported at 2016-Apr-29 23:30 UTC. Time now 2016-Apr-29 23:37 UTC.
Position N 29°52' W 089°58'.

Length 14 m.

Type: Towing. MMSI: 367483050.

Date/timePositionNaut miles runAvg speedWind from/ knotsBaromVisibWave heightAir tempDewpointWater temp
2016-Apr-29 23:30N 29°52' W 089°58'4 0.2
2016-Apr-29 07:33N 29°56' W 089°59'6 5.8
2016-Apr-29 06:33N 29°55' W 090°06'4 0.2
2016-Apr-28 15:30N 29°57' W 090°09'3 3.2
2016-Apr-28 14:33N 29°54' W 090°07'0 0.1
2016-Apr-28 13:33N 29°54' W 090°07'3 0.5
2016-Apr-28 07:31N 29°57' W 090°09'4 3.9
2016-Apr-28 06:33N 29°55' W 090°06'4 4.0
2016-Apr-28 05:34N 29°57' W 090°02'4 4.2
2016-Apr-28 04:33N 29°55' W 089°58'3 2.9
2016-Apr-28 03:33N 29°53' W 090°00'3 3.4
2016-Apr-28 02:34N 29°50' W 090°03'1 1.2
2016-Apr-28 01:34N 29°50' W 090°04'  
2016-Apr-24 18:28N 29°50' W 090°03'1 0.6
2016-Apr-24 17:33N 29°50' W 090°03'0 0.0
2016-Apr-24 16:33N 29°50' W 090°03'2 2.3
2016-Apr-24 15:28N 29°52' W 090°01'4 3.8
2016-Apr-24 14:24N 29°55' W 089°58'6 7.1
2016-Apr-24 13:33N 29°55' W 090°05'  
2016-Apr-20 14:04N 29°56' W 093°01'2 3.4
2016-Apr-20 13:33N 29°56' W 093°03'3 3.2
2016-Apr-20 12:33N 29°56' W 093°07'3 3.0
2016-Apr-20 11:33N 29°57' W 093°10'3 3.2
2016-Apr-20 10:33N 29°59' W 093°13'3 2.9
2016-Apr-20 09:33N 30°02' W 093°15'3 2.6
2016-Apr-20 08:33N 30°04' W 093°16'2 2.1
2016-Apr-20 07:33N 30°05' W 093°18'3 2.7
2016-Apr-20 06:33N 30°04' W 093°21'3 3.1
2016-Apr-20 05:33N 30°04' W 093°24'4 3.6
2016-Apr-20 04:33N 30°04' W 093°28'4 3.7
2016-Apr-20 03:33N 30°04' W 093°33'4 3.5
2016-Apr-20 02:33N 30°04' W 093°37'3 3.4
2016-Apr-20 01:33N 30°04' W 093°41'  

Dump ship's entire track history